sensor_id;sensor_type;location;lat;lon;timestamp;temperature;humidity
75457;SHT31;64036;48.266;14.192;2023-04-03T00:00:10;5.60;66.63
75457;SHT31;64036;48.266;14.192;2023-04-03T00:02:44;5.60;66.35
75457;SHT31;64036;48.266;14.192;2023-04-03T00:05:22;5.60;66.51
75457;SHT31;64036;48.266;14.192;2023-04-03T00:07:51;5.60;66.22
75457;SHT31;64036;48.266;14.192;2023-04-03T00:10:19;5.59;66.33
75457;SHT31;64036;48.266;14.192;2023-04-03T00:12:51;5.58;66.56
75457;SHT31;64036;48.266;14.192;2023-04-03T00:15:25;5.59;67.17
75457;SHT31;64036;48.266;14.192;2023-04-03T00:17:50;5.60;67.74
75457;SHT31;64036;48.266;14.192;2023-04-03T00:20:17;5.60;67.81
75457;SHT31;64036;48.266;14.192;2023-04-03T00:22:43;5.63;67.58
75457;SHT31;64036;48.266;14.192;2023-04-03T00:25:22;5.65;67.35
75457;SHT31;64036;48.266;14.192;2023-04-03T00:27:48;5.65;67.48
75457;SHT31;64036;48.266;14.192;2023-04-03T00:30:15;5.64;67.60
75457;SHT31;64036;48.266;14.192;2023-04-03T00:32:46;5.62;68.14
75457;SHT31;64036;48.266;14.192;2023-04-03T00:35:13;5.59;68.44
75457;SHT31;64036;48.266;14.192;2023-04-03T00:38:07;5.55;68.73
75457;SHT31;64036;48.266;14.192;2023-04-03T00:40:45;5.53;69.06
75457;SHT31;64036;48.266;14.192;2023-04-03T00:43:24;5.48;69.30
75457;SHT31;64036;48.266;14.192;2023-04-03T00:45:56;5.46;69.57
75457;SHT31;64036;48.266;14.192;2023-04-03T00:51:24;5.47;69.67
75457;SHT31;64036;48.266;14.192;2023-04-03T00:53:54;5.48;69.48
75457;SHT31;64036;48.266;14.192;2023-04-03T00:56:27;5.47;69.37
75457;SHT31;64036;48.266;14.192;2023-04-03T00:59:14;5.47;69.15
75457;SHT31;64036;48.266;14.192;2023-04-03T01:01:52;5.49;69.20
75457;SHT31;64036;48.266;14.192;2023-04-03T01:04:40;5.51;69.26
75457;SHT31;64036;48.266;14.192;2023-04-03T01:07:20;5.51;69.35
75457;SHT31;64036;48.266;14.192;2023-04-03T01:09:52;5.50;69.70
75457;SHT31;64036;48.266;14.192;2023-04-03T01:12:28;5.51;70.02
75457;SHT31;64036;48.266;14.192;2023-04-03T01:14:59;5.52;70.11
75457;SHT31;64036;48.266;14.192;2023-04-03T01:20:21;5.49;70.09
75457;SHT31;64036;48.266;14.192;2023-04-03T01:26:20;5.47;70.03
75457;SHT31;64036;48.266;14.192;2023-04-03T01:28:54;5.44;69.93
75457;SHT31;64036;48.266;14.192;2023-04-03T01:31:28;5.43;70.20
75457;SHT31;64036;48.266;14.192;2023-04-03T01:34:25;5.44;70.13
75457;SHT31;64036;48.266;14.192;2023-04-03T01:37:18;5.44;70.13
75457;SHT31;64036;48.266;14.192;2023-04-03T01:40:14;5.43;70.30
75457;SHT31;64036;48.266;14.192;2023-04-03T01:42:46;5.44;70.13
75457;SHT31;64036;48.266;14.192;2023-04-03T01:45:25;5.46;70.02
75457;SHT31;64036;48.266;14.192;2023-04-03T01:47:57;5.50;69.79
75457;SHT31;64036;48.266;14.192;2023-04-03T01:50:25;5.52;69.65
75457;SHT31;64036;48.266;14.192;2023-04-03T01:52:51;5.53;69.53
75457;SHT31;64036;48.266;14.192;2023-04-03T01:55:17;5.52;69.84
75457;SHT31;64036;48.266;14.192;2023-04-03T01:57:43;5.52;70.06
75457;SHT31;64036;48.266;14.192;2023-04-03T02:00:23;5.47;69.73
75457;SHT31;64036;48.266;14.192;2023-04-03T02:02:54;5.45;68.63
75457;SHT31;64036;48.266;14.192;2023-04-03T02:05:23;5.45;68.86
75457;SHT31;64036;48.266;14.192;2023-04-03T02:08:01;5.45;68.31
75457;SHT31;64036;48.266;14.192;2023-04-03T02:10:27;5.45;68.56
75457;SHT31;64036;48.266;14.192;2023-04-03T02:12:53;5.42;69.03
75457;SHT31;64036;48.266;14.192;2023-04-03T02:15:19;5.42;69.03
75457;SHT31;64036;48.266;14.192;2023-04-03T02:17:51;5.39;69.20
75457;SHT31;64036;48.266;14.192;2023-04-03T02:20:25;5.34;69.33
75457;SHT31;64036;48.266;14.192;2023-04-03T02:23:14;5.29;69.48
75457;SHT31;64036;48.266;14.192;2023-04-03T02:25:42;5.24;69.66
75457;SHT31;64036;48.266;14.192;2023-04-03T02:28:08;5.24;69.79
75457;SHT31;64036;48.266;14.192;2023-04-03T02:30:36;5.26;69.81
75457;SHT31;64036;48.266;14.192;2023-04-03T02:33:05;5.25;69.63
75457;SHT31;64036;48.266;14.192;2023-04-03T02:35:34;5.26;69.69
75457;SHT31;64036;48.266;14.192;2023-04-03T02:38:02;5.27;69.80
75457;SHT31;64036;48.266;14.192;2023-04-03T02:40:37;5.28;70.01
75457;SHT31;64036;48.266;14.192;2023-04-03T02:45:50;5.26;70.24
75457;SHT31;64036;48.266;14.192;2023-04-03T02:48:32;5.27;70.11
75457;SHT31;64036;48.266;14.192;2023-04-03T02:51:02;5.28;69.69
75457;SHT31;64036;48.266;14.192;2023-04-03T02:53:38;5.30;69.50
75457;SHT31;64036;48.266;14.192;2023-04-03T02:56:07;5.30;69.24
75457;SHT31;64036;48.266;14.192;2023-04-03T02:58:43;5.27;68.65
75457;SHT31;64036;48.266;14.192;2023-04-03T03:01:12;5.27;68.42
75457;SHT31;64036;48.266;14.192;2023-04-03T03:03:40;5.27;68.22
75457;SHT31;64036;48.266;14.192;2023-04-03T03:06:14;5.27;68.24
75457;SHT31;64036;48.266;14.192;2023-04-03T03:08:44;5.29;68.32
75457;SHT31;64036;48.266;14.192;2023-04-03T03:11:13;5.28;68.14
75457;SHT31;64036;48.266;14.192;2023-04-03T03:13:56;5.27;68.34
75457;SHT31;64036;48.266;14.192;2023-04-03T03:16:32;5.24;68.74
75457;SHT31;64036;48.266;14.192;2023-04-03T03:18:58;5.24;68.82
75457;SHT31;64036;48.266;14.192;2023-04-03T03:21:27;5.26;68.85
75457;SHT31;64036;48.266;14.192;2023-04-03T03:24:03;5.25;69.01
75457;SHT31;64036;48.266;14.192;2023-04-03T03:26:59;5.24;69.08
75457;SHT31;64036;48.266;14.192;2023-04-03T03:29:44;5.23;69.06
75457;SHT31;64036;48.266;14.192;2023-04-03T03:32:30;5.22;68.63
75457;SHT31;64036;48.266;14.192;2023-04-03T03:34:56;5.22;68.29
75457;SHT31;64036;48.266;14.192;2023-04-03T03:37:22;5.22;68.17
75457;SHT31;64036;48.266;14.192;2023-04-03T03:40:03;5.23;68.01
75457;SHT31;64036;48.266;14.192;2023-04-03T03:42:29;5.22;67.87
75457;SHT31;64036;48.266;14.192;2023-04-03T03:44:55;5.21;67.67
75457;SHT31;64036;48.266;14.192;2023-04-03T03:47:24;5.24;67.49
75457;SHT31;64036;48.266;14.192;2023-04-03T03:49:58;5.23;67.72
75457;SHT31;64036;48.266;14.192;2023-04-03T03:52:27;5.18;67.39
75457;SHT31;64036;48.266;14.192;2023-04-03T03:54:56;5.13;67.49
75457;SHT31;64036;48.266;14.192;2023-04-03T03:57:26;5.14;68.16
75457;SHT31;64036;48.266;14.192;2023-04-03T04:00:02;5.12;68.23
75457;SHT31;64036;48.266;14.192;2023-04-03T04:02:54;5.13;68.97
75457;SHT31;64036;48.266;14.192;2023-04-03T04:05:31;5.13;69.39
75457;SHT31;64036;48.266;14.192;2023-04-03T04:07:57;5.11;68.36
75457;SHT31;64036;48.266;14.192;2023-04-03T04:10:25;5.11;67.85
75457;SHT31;64036;48.266;14.192;2023-04-03T04:13:00;5.11;66.80
75457;SHT31;64036;48.266;14.192;2023-04-03T04:15:28;5.13;66.85
75457;SHT31;64036;48.266;14.192;2023-04-03T04:17:59;5.14;67.42
75457;SHT31;64036;48.266;14.192;2023-04-03T04:20:25;5.15;67.59
75457;SHT31;64036;48.266;14.192;2023-04-03T04:23:01;5.13;68.20
75457;SHT31;64036;48.266;14.192;2023-04-03T04:25:27;5.13;67.73
75457;SHT31;64036;48.266;14.192;2023-04-03T04:27:59;5.12;67.67
75457;SHT31;64036;48.266;14.192;2023-04-03T04:33:11;5.11;67.46
75457;SHT31;64036;48.266;14.192;2023-04-03T04:35:47;5.11;67.24
75457;SHT31;64036;48.266;14.192;2023-04-03T04:38:16;5.09;67.20
75457;SHT31;64036;48.266;14.192;2023-04-03T04:40:42;5.07;67.10
75457;SHT31;64036;48.266;14.192;2023-04-03T04:43:10;5.06;67.01
75457;SHT31;64036;48.266;14.192;2023-04-03T04:45:39;5.03;67.04
75457;SHT31;64036;48.266;14.192;2023-04-03T04:48:16;5.02;67.23
75457;SHT31;64036;48.266;14.192;2023-04-03T04:50:49;5.02;67.34
75457;SHT31;64036;48.266;14.192;2023-04-03T04:53:28;5.01;67.42
75457;SHT31;64036;48.266;14.192;2023-04-03T04:55:56;5.01;67.64
75457;SHT31;64036;48.266;14.192;2023-04-03T04:58:30;5.00;67.77
75457;SHT31;64036;48.266;14.192;2023-04-03T05:01:07;4.99;67.77
75457;SHT31;64036;48.266;14.192;2023-04-03T05:03:35;4.97;67.55
75457;SHT31;64036;48.266;14.192;2023-04-03T05:06:24;4.96;67.78
75457;SHT31;64036;48.266;14.192;2023-04-03T05:09:02;4.97;67.30
75457;SHT31;64036;48.266;14.192;2023-04-03T05:12:07;4.99;67.62
75457;SHT31;64036;48.266;14.192;2023-04-03T05:15:12;5.00;67.68
75457;SHT31;64036;48.266;14.192;2023-04-03T05:18:01;4.99;67.73
75457;SHT31;64036;48.266;14.192;2023-04-03T05:20:34;5.00;67.95
75457;SHT31;64036;48.266;14.192;2023-04-03T05:23:02;5.00;67.81
75457;SHT31;64036;48.266;14.192;2023-04-03T05:25:31;4.97;67.77
75457;SHT31;64036;48.266;14.192;2023-04-03T05:28:17;4.99;67.65
75457;SHT31;64036;48.266;14.192;2023-04-03T05:30:54;4.97;67.20
75457;SHT31;64036;48.266;14.192;2023-04-03T05:33:29;4.99;67.40
75457;SHT31;64036;48.266;14.192;2023-04-03T05:36:11;4.99;67.82
75457;SHT31;64036;48.266;14.192;2023-04-03T05:38:40;4.99;68.02
75457;SHT31;64036;48.266;14.192;2023-04-03T05:41:06;5.03;68.11
75457;SHT31;64036;48.266;14.192;2023-04-03T05:43:44;5.05;68.11
75457;SHT31;64036;48.266;14.192;2023-04-03T05:46:14;5.09;68.25
75457;SHT31;64036;48.266;14.192;2023-04-03T05:48:43;5.11;68.19
75457;SHT31;64036;48.266;14.192;2023-04-03T05:51:14;5.17;68.14
75457;SHT31;64036;48.266;14.192;2023-04-03T05:54:23;5.21;67.87
75457;SHT31;64036;48.266;14.192;2023-04-03T05:56:57;5.24;68.08
75457;SHT31;64036;48.266;14.192;2023-04-03T05:59:26;5.24;68.24
75457;SHT31;64036;48.266;14.192;2023-04-03T06:02:14;5.24;67.84
75457;SHT31;64036;48.266;14.192;2023-04-03T06:04:53;5.24;67.33
75457;SHT31;64036;48.266;14.192;2023-04-03T06:07:40;5.26;67.43
75457;SHT31;64036;48.266;14.192;2023-04-03T06:10:40;5.29;67.49
75457;SHT31;64036;48.266;14.192;2023-04-03T06:13:11;5.33;67.85
75457;SHT31;64036;48.266;14.192;2023-04-03T06:15:37;5.33;67.83
75457;SHT31;64036;48.266;14.192;2023-04-03T06:18:06;5.33;67.73
75457;SHT31;64036;48.266;14.192;2023-04-03T06:20:32;5.34;68.03
75457;SHT31;64036;48.266;14.192;2023-04-03T06:23:03;5.37;68.18
75457;SHT31;64036;48.266;14.192;2023-04-03T06:25:29;5.39;68.38
75457;SHT31;64036;48.266;14.192;2023-04-03T06:27:59;5.41;68.40
75457;SHT31;64036;48.266;14.192;2023-04-03T06:30:26;5.40;68.53
75457;SHT31;64036;48.266;14.192;2023-04-03T06:33:03;5.38;67.96
75457;SHT31;64036;48.266;14.192;2023-04-03T06:35:36;5.36;67.33
75457;SHT31;64036;48.266;14.192;2023-04-03T06:38:03;5.35;67.29
75457;SHT31;64036;48.266;14.192;2023-04-03T06:40:34;5.35;67.49
75457;SHT31;64036;48.266;14.192;2023-04-03T06:43:08;5.38;67.55
75457;SHT31;64036;48.266;14.192;2023-04-03T06:45:34;5.39;67.33
75457;SHT31;64036;48.266;14.192;2023-04-03T06:48:02;5.41;67.09
75457;SHT31;64036;48.266;14.192;2023-04-03T06:50:31;5.45;67.09
75457;SHT31;64036;48.266;14.192;2023-04-03T06:53:04;5.49;67.12
75457;SHT31;64036;48.266;14.192;2023-04-03T06:55:31;5.52;67.02
75457;SHT31;64036;48.266;14.192;2023-04-03T06:58:45;5.57;67.42
75457;SHT31;64036;48.266;14.192;2023-04-03T07:02:13;5.70;67.36
75457;SHT31;64036;48.266;14.192;2023-04-03T07:04:48;5.80;67.36
75457;SHT31;64036;48.266;14.192;2023-04-03T07:07:14;5.90;67.24
75457;SHT31;64036;48.266;14.192;2023-04-03T07:10:01;6.02;66.80
75457;SHT31;64036;48.266;14.192;2023-04-03T07:12:35;6.16;66.34
75457;SHT31;64036;48.266;14.192;2023-04-03T07:15:01;6.27;66.05
75457;SHT31;64036;48.266;14.192;2023-04-03T07:17:38;6.33;65.78
75457;SHT31;64036;48.266;14.192;2023-04-03T07:20:23;6.36;65.59
75457;SHT31;64036;48.266;14.192;2023-04-03T07:22:52;6.39;65.86
75457;SHT31;64036;48.266;14.192;2023-04-03T07:25:17;6.37;65.51
75457;SHT31;64036;48.266;14.192;2023-04-03T07:27:46;6.30;65.72
75457;SHT31;64036;48.266;14.192;2023-04-03T07:30:12;6.26;65.88
75457;SHT31;64036;48.266;14.192;2023-04-03T07:32:39;6.22;66.32
75457;SHT31;64036;48.266;14.192;2023-04-03T07:35:09;6.21;66.62
75457;SHT31;64036;48.266;14.192;2023-04-03T07:38:02;6.18;66.56
75457;SHT31;64036;48.266;14.192;2023-04-03T07:40:27;6.13;66.60
75457;SHT31;64036;48.266;14.192;2023-04-03T07:42:56;6.02;66.40
75457;SHT31;64036;48.266;14.192;2023-04-03T07:45:25;5.91;66.91
75457;SHT31;64036;48.266;14.192;2023-04-03T07:47:57;5.79;66.86
75457;SHT31;64036;48.266;14.192;2023-04-03T07:50:23;5.69;67.45
75457;SHT31;64036;48.266;14.192;2023-04-03T07:52:49;5.62;67.11
75457;SHT31;64036;48.266;14.192;2023-04-03T07:55:33;5.54;66.91
75457;SHT31;64036;48.266;14.192;2023-04-03T07:58:16;5.47;66.63
75457;SHT31;64036;48.266;14.192;2023-04-03T08:00:43;5.48;66.78
75457;SHT31;64036;48.266;14.192;2023-04-03T08:03:15;5.47;66.63
75457;SHT31;64036;48.266;14.192;2023-04-03T08:06:27;5.47;66.40
75457;SHT31;64036;48.266;14.192;2023-04-03T08:09:07;5.51;66.35
75457;SHT31;64036;48.266;14.192;2023-04-03T08:11:33;5.57;66.27
75457;SHT31;64036;48.266;14.192;2023-04-03T08:13:59;5.66;65.91
75457;SHT31;64036;48.266;14.192;2023-04-03T08:16:29;5.72;66.17
75457;SHT31;64036;48.266;14.192;2023-04-03T08:18:55;5.79;65.75
75457;SHT31;64036;48.266;14.192;2023-04-03T08:21:23;5.90;65.82
75457;SHT31;64036;48.266;14.192;2023-04-03T08:23:59;6.01;64.93
75457;SHT31;64036;48.266;14.192;2023-04-03T08:26:47;6.05;64.04
75457;SHT31;64036;48.266;14.192;2023-04-03T08:29:13;6.12;63.57
75457;SHT31;64036;48.266;14.192;2023-04-03T08:31:39;6.20;63.15
75457;SHT31;64036;48.266;14.192;2023-04-03T08:34:05;6.28;63.13
75457;SHT31;64036;48.266;14.192;2023-04-03T08:36:39;6.36;61.89
75457;SHT31;64036;48.266;14.192;2023-04-03T08:39:05;6.35;59.84
75457;SHT31;64036;48.266;14.192;2023-04-03T08:41:34;6.40;61.55
75457;SHT31;64036;48.266;14.192;2023-04-03T08:44:21;6.54;61.39
75457;SHT31;64036;48.266;14.192;2023-04-03T08:49:57;6.80;59.88
75457;SHT31;64036;48.266;14.192;2023-04-03T08:58:09;7.09;57.46
75457;SHT31;64036;48.266;14.192;2023-04-03T09:03:39;7.22;55.92
75457;SHT31;64036;48.266;14.192;2023-04-03T09:06:19;7.30;56.46
75457;SHT31;64036;48.266;14.192;2023-04-03T09:12:00;7.76;55.75
75457;SHT31;64036;48.266;14.192;2023-04-03T09:21:04;8.60;54.67
75457;SHT31;64036;48.266;14.192;2023-04-03T09:23:47;8.63;53.39
75457;SHT31;64036;48.266;14.192;2023-04-03T09:28:53;8.86;53.58
75457;SHT31;64036;48.266;14.192;2023-04-03T09:31:23;8.98;51.31
75457;SHT31;64036;48.266;14.192;2023-04-03T09:33:59;9.17;50.95
75457;SHT31;64036;48.266;14.192;2023-04-03T09:36:45;9.31;49.89
75457;SHT31;64036;48.266;14.192;2023-04-03T09:39:15;9.52;50.74
75457;SHT31;64036;48.266;14.192;2023-04-03T09:41:55;9.85;50.89
75457;SHT31;64036;48.266;14.192;2023-04-03T09:44:39;10.05;48.79
75457;SHT31;64036;48.266;14.192;2023-04-03T09:47:18;10.11;49.09
75457;SHT31;64036;48.266;14.192;2023-04-03T09:52:42;10.47;47.03
75457;SHT31;64036;48.266;14.192;2023-04-03T09:55:19;11.53;46.06
75457;SHT31;64036;48.266;14.192;2023-04-03T09:57:58;12.56;46.24
75457;SHT31;64036;48.266;14.192;2023-04-03T10:03:02;13.21;43.34
75457;SHT31;64036;48.266;14.192;2023-04-03T10:10:41;14.15;41.59
75457;SHT31;64036;48.266;14.192;2023-04-03T10:13:14;14.64;41.04
75457;SHT31;64036;48.266;14.192;2023-04-03T10:18:45;15.13;40.02
75457;SHT31;64036;48.266;14.192;2023-04-03T10:24:25;14.60;39.65
75457;SHT31;64036;48.266;14.192;2023-04-03T10:27:15;14.23;40.43
75457;SHT31;64036;48.266;14.192;2023-04-03T10:33:12;13.50;40.01
75457;SHT31;64036;48.266;14.192;2023-04-03T10:38:51;12.86;40.84
75457;SHT31;64036;48.266;14.192;2023-04-03T10:50:31;10.83;40.85
75457;SHT31;64036;48.266;14.192;2023-04-03T10:53:39;10.30;41.64
75457;SHT31;64036;48.266;14.192;2023-04-03T10:58:44;9.70;43.29
75457;SHT31;64036;48.266;14.192;2023-04-03T11:01:24;9.48;45.20
75457;SHT31;64036;48.266;14.192;2023-04-03T11:04:00;9.21;44.67
75457;SHT31;64036;48.266;14.192;2023-04-03T11:06:36;9.01;45.06
75457;SHT31;64036;48.266;14.192;2023-04-03T11:09:35;8.93;44.77
75457;SHT31;64036;48.266;14.192;2023-04-03T11:13:10;8.93;44.74
75457;SHT31;64036;48.266;14.192;2023-04-03T11:15:15;8.99;44.91
75457;SHT31;64036;48.266;14.192;2023-04-03T11:17:48;8.83;44.88
75457;SHT31;64036;48.266;14.192;2023-04-03T11:20:32;8.66;45.82
75457;SHT31;64036;48.266;14.192;2023-04-03T11:23:03;8.43;46.06
75457;SHT31;64036;48.266;14.192;2023-04-03T11:25:43;8.19;47.03
75457;SHT31;64036;48.266;14.192;2023-04-03T11:28:15;8.03;47.79
75457;SHT31;64036;48.266;14.192;2023-04-03T11:36:27;7.50;48.92
75457;SHT31;64036;48.266;14.192;2023-04-03T11:42:26;7.43;49.91
75457;SHT31;64036;48.266;14.192;2023-04-03T11:48:42;7.39;50.60
75457;SHT31;64036;48.266;14.192;2023-04-03T11:53:45;7.32;50.09
75457;SHT31;64036;48.266;14.192;2023-04-03T11:56:29;7.24;49.27
75457;SHT31;64036;48.266;14.192;2023-04-03T11:59:24;7.12;48.70
75457;SHT31;64036;48.266;14.192;2023-04-03T12:02:17;7.05;49.09
75457;SHT31;64036;48.266;14.192;2023-04-03T12:05:26;7.08;49.94
75457;SHT31;64036;48.266;14.192;2023-04-03T12:08:43;7.12;48.97
75457;SHT31;64036;48.266;14.192;2023-04-03T12:16:29;7.19;48.27
75457;SHT31;64036;48.266;14.192;2023-04-03T12:26:45;7.56;46.52
75457;SHT31;64036;48.266;14.192;2023-04-03T12:38:35;7.68;45.67
75457;SHT31;64036;48.266;14.192;2023-04-03T12:44:37;7.90;45.60
75457;SHT31;64036;48.266;14.192;2023-04-03T12:47:24;7.92;44.81
75457;SHT31;64036;48.266;14.192;2023-04-03T12:49:58;7.87;43.94
75457;SHT31;64036;48.266;14.192;2023-04-03T12:55:27;7.85;44.76
75457;SHT31;64036;48.266;14.192;2023-04-03T12:57:53;8.02;45.09
75457;SHT31;64036;48.266;14.192;2023-04-03T13:03:06;8.31;44.74
75457;SHT31;64036;48.266;14.192;2023-04-03T13:06:05;8.37;43.39
75457;SHT31;64036;48.266;14.192;2023-04-03T13:09:02;8.48;43.91
75457;SHT31;64036;48.266;14.192;2023-04-03T13:14:38;9.27;43.30
75457;SHT31;64036;48.266;14.192;2023-04-03T13:17:17;9.54;43.23
75457;SHT31;64036;48.266;14.192;2023-04-03T13:19:49;9.78;42.75
75457;SHT31;64036;48.266;14.192;2023-04-03T13:22:31;10.03;43.56
75457;SHT31;64036;48.266;14.192;2023-04-03T13:25:11;10.27;43.03
75457;SHT31;64036;48.266;14.192;2023-04-03T13:27:40;10.44;43.13
75457;SHT31;64036;48.266;14.192;2023-04-03T13:33:59;10.62;42.12
75457;SHT31;64036;48.266;14.192;2023-04-03T13:39:32;10.55;40.91
75457;SHT31;64036;48.266;14.192;2023-04-03T13:45:34;9.99;42.18
75457;SHT31;64036;48.266;14.192;2023-04-03T13:48:09;9.80;41.64
75457;SHT31;64036;48.266;14.192;2023-04-03T13:53:57;9.52;41.30
75457;SHT31;64036;48.266;14.192;2023-04-03T13:56:37;9.45;40.76
75457;SHT31;64036;48.266;14.192;2023-04-03T13:59:22;9.54;42.17
75457;SHT31;64036;48.266;14.192;2023-04-03T14:02:16;9.60;41.87
75457;SHT31;64036;48.266;14.192;2023-04-03T14:05:01;9.52;41.16
75457;SHT31;64036;48.266;14.192;2023-04-03T14:07:33;9.41;41.96
75457;SHT31;64036;48.266;14.192;2023-04-03T14:10:15;9.30;42.72
75457;SHT31;64036;48.266;14.192;2023-04-03T14:12:59;9.23;42.94
75457;SHT31;64036;48.266;14.192;2023-04-03T14:15:43;9.22;42.44
75457;SHT31;64036;48.266;14.192;2023-04-03T14:18:19;9.05;41.32
75457;SHT31;64036;48.266;14.192;2023-04-03T14:21:00;8.97;42.20
75457;SHT31;64036;48.266;14.192;2023-04-03T14:23:39;8.97;43.07
75457;SHT31;64036;48.266;14.192;2023-04-03T14:26:17;9.00;43.19
75457;SHT31;64036;48.266;14.192;2023-04-03T14:28:57;9.04;43.80
75457;SHT31;64036;48.266;14.192;2023-04-03T14:31:47;8.99;43.08
75457;SHT31;64036;48.266;14.192;2023-04-03T14:34:25;8.91;41.85
75457;SHT31;64036;48.266;14.192;2023-04-03T14:36:56;8.77;41.65
75457;SHT31;64036;48.266;14.192;2023-04-03T14:39:38;8.65;42.21
75457;SHT31;64036;48.266;14.192;2023-04-03T14:42:23;8.59;42.24
75457;SHT31;64036;48.266;14.192;2023-04-03T14:45:07;8.55;42.62
75457;SHT31;64036;48.266;14.192;2023-04-03T14:47:50;8.51;43.10
75457;SHT31;64036;48.266;14.192;2023-04-03T14:50:22;8.50;43.14
75457;SHT31;64036;48.266;14.192;2023-04-03T14:52:53;8.45;43.18
75457;SHT31;64036;48.266;14.192;2023-04-03T14:55:23;8.41;43.38
75457;SHT31;64036;48.266;14.192;2023-04-03T14:57:51;8.35;41.68
75457;SHT31;64036;48.266;14.192;2023-04-03T15:00:18;8.31;43.44
75457;SHT31;64036;48.266;14.192;2023-04-03T15:02:52;8.28;41.54
75457;SHT31;64036;48.266;14.192;2023-04-03T15:05:28;8.23;42.08
75457;SHT31;64036;48.266;14.192;2023-04-03T15:08:08;8.11;42.14
75457;SHT31;64036;48.266;14.192;2023-04-03T15:10:50;8.03;42.20
75457;SHT31;64036;48.266;14.192;2023-04-03T15:16:23;7.94;42.68
75457;SHT31;64036;48.266;14.192;2023-04-03T15:19:11;7.89;43.70
75457;SHT31;64036;48.266;14.192;2023-04-03T15:21:54;7.83;44.04
75457;SHT31;64036;48.266;14.192;2023-04-03T15:24:42;7.80;43.87
75457;SHT31;64036;48.266;14.192;2023-04-03T15:27:26;7.80;43.81
75457;SHT31;64036;48.266;14.192;2023-04-03T15:30:10;7.76;43.85
75457;SHT31;64036;48.266;14.192;2023-04-03T15:32:56;7.69;44.16
75457;SHT31;64036;48.266;14.192;2023-04-03T15:35:38;7.61;43.52
75457;SHT31;64036;48.266;14.192;2023-04-03T15:38:24;7.53;44.09
75457;SHT31;64036;48.266;14.192;2023-04-03T15:41:14;7.43;44.21
75457;SHT31;64036;48.266;14.192;2023-04-03T15:44:05;7.31;44.71
75457;SHT31;64036;48.266;14.192;2023-04-03T15:46:50;7.21;45.16
75457;SHT31;64036;48.266;14.192;2023-04-03T15:49:58;7.11;45.41
75457;SHT31;64036;48.266;14.192;2023-04-03T15:52:57;6.99;45.83
75457;SHT31;64036;48.266;14.192;2023-04-03T15:55:34;6.89;45.90
75457;SHT31;64036;48.266;14.192;2023-04-03T15:58:29;6.74;45.80
75457;SHT31;64036;48.266;14.192;2023-04-03T16:00:58;6.61;46.14
75457;SHT31;64036;48.266;14.192;2023-04-03T16:03:23;6.53;46.63
75457;SHT31;64036;48.266;14.192;2023-04-03T16:05:52;6.45;46.71
75457;SHT31;64036;48.266;14.192;2023-04-03T16:08:49;6.27;47.03
75457;SHT31;64036;48.266;14.192;2023-04-03T16:11:39;6.09;46.58
75457;SHT31;64036;48.266;14.192;2023-04-03T16:14:49;5.90;46.99
75457;SHT31;64036;48.266;14.192;2023-04-03T16:17:39;5.75;46.87
75457;SHT31;64036;48.266;14.192;2023-04-03T16:24:27;5.57;49.61
75457;SHT31;64036;48.266;14.192;2023-04-03T16:27:24;5.52;50.05
75457;SHT31;64036;48.266;14.192;2023-04-03T16:30:51;5.46;50.54
75457;SHT31;64036;48.266;14.192;2023-04-03T16:37:27;5.36;51.13
75457;SHT31;64036;48.266;14.192;2023-04-03T16:40:14;5.30;51.70
75457;SHT31;64036;48.266;14.192;2023-04-03T16:43:09;5.24;51.81
75457;SHT31;64036;48.266;14.192;2023-04-03T16:49:44;5.17;52.66
75457;SHT31;64036;48.266;14.192;2023-04-03T16:53:27;5.13;51.96
75457;SHT31;64036;48.266;14.192;2023-04-03T16:56:12;5.09;51.89
75457;SHT31;64036;48.266;14.192;2023-04-03T16:59:24;5.06;51.58
75457;SHT31;64036;48.266;14.192;2023-04-03T17:02:50;5.06;52.64
75457;SHT31;64036;48.266;14.192;2023-04-03T17:12:13;5.01;51.47
75457;SHT31;64036;48.266;14.192;2023-04-03T17:14:57;5.01;52.40
75457;SHT31;64036;48.266;14.192;2023-04-03T17:21:04;4.95;52.60
75457;SHT31;64036;48.266;14.192;2023-04-03T17:24:12;4.94;52.15
75457;SHT31;64036;48.266;14.192;2023-04-03T17:31:02;4.85;51.80
75457;SHT31;64036;48.266;14.192;2023-04-03T17:33:59;4.82;52.45
75457;SHT31;64036;48.266;14.192;2023-04-03T17:37:32;4.81;52.44
75457;SHT31;64036;48.266;14.192;2023-04-03T17:43:52;4.67;52.53
75457;SHT31;64036;48.266;14.192;2023-04-03T17:50:23;4.45;53.74
75457;SHT31;64036;48.266;14.192;2023-04-03T18:03:09;3.92;55.75
75457;SHT31;64036;48.266;14.192;2023-04-03T18:13:19;3.62;57.18
75457;SHT31;64036;48.266;14.192;2023-04-03T18:16:38;3.53;57.13
75457;SHT31;64036;48.266;14.192;2023-04-03T18:20:14;3.45;57.59
75457;SHT31;64036;48.266;14.192;2023-04-03T18:23:32;3.36;57.71
75457;SHT31;64036;48.266;14.192;2023-04-03T18:26:36;3.33;57.60
75457;SHT31;64036;48.266;14.192;2023-04-03T18:29:57;3.30;57.64
75457;SHT31;64036;48.266;14.192;2023-04-03T18:33:15;3.28;57.86
75457;SHT31;64036;48.266;14.192;2023-04-03T18:47:03;3.24;59.55
75457;SHT31;64036;48.266;14.192;2023-04-03T18:50:03;3.28;59.84
75457;SHT31;64036;48.266;14.192;2023-04-03T19:03:40;3.04;61.31
75457;SHT31;64036;48.266;14.192;2023-04-03T19:14:17;2.90;62.58
75457;SHT31;64036;48.266;14.192;2023-04-03T19:21:17;2.85;62.87
75457;SHT31;64036;48.266;14.192;2023-04-03T19:24:30;2.89;62.54
75457;SHT31;64036;48.266;14.192;2023-04-03T19:31:26;2.99;62.30
75457;SHT31;64036;48.266;14.192;2023-04-03T19:34:59;3.05;62.21
75457;SHT31;64036;48.266;14.192;2023-04-03T19:45:02;3.18;61.80
75457;SHT31;64036;48.266;14.192;2023-04-03T19:51:31;3.26;61.85
75457;SHT31;64036;48.266;14.192;2023-04-03T19:54:42;3.29;61.81
75457;SHT31;64036;48.266;14.192;2023-04-03T20:01:40;3.36;61.67
75457;SHT31;64036;48.266;14.192;2023-04-03T20:11:25;3.40;61.73
75457;SHT31;64036;48.266;14.192;2023-04-03T20:18:22;3.41;61.87
75457;SHT31;64036;48.266;14.192;2023-04-03T20:21:33;3.41;62.33
75457;SHT31;64036;48.266;14.192;2023-04-03T20:28:26;3.41;62.14
75457;SHT31;64036;48.266;14.192;2023-04-03T20:32:08;3.42;61.85
75457;SHT31;64036;48.266;14.192;2023-04-03T20:39:03;3.41;62.41
75457;SHT31;64036;48.266;14.192;2023-04-03T20:42:42;3.39;62.48
75457;SHT31;64036;48.266;14.192;2023-04-03T20:46:14;3.38;62.89
75457;SHT31;64036;48.266;14.192;2023-04-03T20:53:04;3.36;62.60
75457;SHT31;64036;48.266;14.192;2023-04-03T20:56:54;3.35;62.96
75457;SHT31;64036;48.266;14.192;2023-04-03T20:59:58;3.35;63.27
75457;SHT31;64036;48.266;14.192;2023-04-03T21:27:16;3.29;63.44
75457;SHT31;64036;48.266;14.192;2023-04-03T21:36:55;3.28;63.13
75457;SHT31;64036;48.266;14.192;2023-04-03T21:43:30;3.28;63.08
75457;SHT31;64036;48.266;14.192;2023-04-03T21:50:09;3.27;63.04
75457;SHT31;64036;48.266;14.192;2023-04-03T21:52:35;3.26;62.67
75457;SHT31;64036;48.266;14.192;2023-04-03T21:55:10;3.24;62.05